sensor_id;sensor_type;location;lat;lon;timestamp;P1;durP1;ratioP1;P2;durP2;ratioP2
48873;SDS011;66155;46.204;5.220;2023-02-18T00:02:00;8.20;;;7.40;;
48873;SDS011;66155;46.204;5.220;2023-02-18T00:07:00;11.02;;;9.73;;
48873;SDS011;66155;46.204;5.220;2023-02-18T00:12:00;15.65;;;11.38;;
48873;SDS011;66155;46.204;5.220;2023-02-18T00:17:01;14.47;;;11.97;;
48873;SDS011;66155;46.204;5.220;2023-02-18T00:22:01;13.27;;;11.85;;
48873;SDS011;66155;46.204;5.220;2023-02-18T00:27:02;12.98;;;11.65;;
48873;SDS011;66155;46.204;5.220;2023-02-18T00:32:02;13.07;;;11.65;;
48873;SDS011;66155;46.204;5.220;2023-02-18T00:37:03;14.05;;;11.82;;
48873;SDS011;66155;46.204;5.220;2023-02-18T00:42:04;14.30;;;12.77;;
48873;SDS011;66155;46.204;5.220;2023-02-18T00:47:04;13.20;;;11.25;;
48873;SDS011;66155;46.204;5.220;2023-02-18T00:52:04;12.48;;;11.13;;
48873;SDS011;66155;46.204;5.220;2023-02-18T00:57:05;10.45;;;9.45;;
48873;SDS011;66155;46.204;5.220;2023-02-18T01:02:05;11.50;;;10.30;;
48873;SDS011;66155;46.204;5.220;2023-02-18T01:07:06;13.77;;;12.48;;
48873;SDS011;66155;46.204;5.220;2023-02-18T01:12:09;10.60;;;9.60;;
48873;SDS011;66155;46.204;5.220;2023-02-18T01:17:09;10.57;;;9.57;;
48873;SDS011;66155;46.204;5.220;2023-02-18T01:22:10;10.02;;;9.13;;
48873;SDS011;66155;46.204;5.220;2023-02-18T01:27:10;11.47;;;10.27;;
48873;SDS011;66155;46.204;5.220;2023-02-18T01:32:10;10.77;;;9.67;;
48873;SDS011;66155;46.204;5.220;2023-02-18T01:37:11;10.23;;;9.23;;
48873;SDS011;66155;46.204;5.220;2023-02-18T01:42:19;10.25;;;9.25;;
48873;SDS011;66155;46.204;5.220;2023-02-18T01:47:21;10.68;;;9.70;;
48873;SDS011;66155;46.204;5.220;2023-02-18T01:52:22;9.70;;;8.80;;
48873;SDS011;66155;46.204;5.220;2023-02-18T01:57:29;10.40;;;9.40;;
48873;SDS011;66155;46.204;5.220;2023-02-18T02:02:32;10.00;;;8.93;;
48873;SDS011;66155;46.204;5.220;2023-02-18T02:07:36;11.15;;;10.05;;
48873;SDS011;66155;46.204;5.220;2023-02-18T02:39:07;9.33;;;8.53;;
48873;SDS011;66155;46.204;5.220;2023-02-18T02:54:20;9.90;;;9.00;;
48873;SDS011;66155;46.204;5.220;2023-02-18T02:59:23;9.98;;;9.10;;
48873;SDS011;66155;46.204;5.220;2023-02-18T03:20:26;12.05;;;10.95;;
48873;SDS011;66155;46.204;5.220;2023-02-18T03:25:33;11.60;;;10.40;;
48873;SDS011;66155;46.204;5.220;2023-02-18T03:30:39;12.48;;;11.27;;
48873;SDS011;66155;46.204;5.220;2023-02-18T03:35:45;12.75;;;11.63;;
48873;SDS011;66155;46.204;5.220;2023-02-18T03:40:47;10.13;;;9.23;;
48873;SDS011;66155;46.204;5.220;2023-02-18T03:45:48;9.98;;;9.10;;
48873;SDS011;66155;46.204;5.220;2023-02-18T03:50:48;10.65;;;9.75;;
48873;SDS011;66155;46.204;5.220;2023-02-18T03:55:49;10.38;;;9.48;;
48873;SDS011;66155;46.204;5.220;2023-02-18T04:00:49;12.55;;;11.50;;
48873;SDS011;66155;46.204;5.220;2023-02-18T04:05:50;12.43;;;11.33;;
48873;SDS011;66155;46.204;5.220;2023-02-18T04:10:50;13.25;;;12.15;;
48873;SDS011;66155;46.204;5.220;2023-02-18T04:15:51;13.00;;;11.90;;
48873;SDS011;66155;46.204;5.220;2023-02-18T04:20:51;11.65;;;10.52;;
48873;SDS011;66155;46.204;5.220;2023-02-18T04:25:52;12.95;;;11.95;;
48873;SDS011;66155;46.204;5.220;2023-02-18T04:30:52;12.80;;;11.73;;
48873;SDS011;66155;46.204;5.220;2023-02-18T04:35:52;13.88;;;12.77;;
48873;SDS011;66155;46.204;5.220;2023-02-18T04:40:53;14.88;;;13.50;;
48873;SDS011;66155;46.204;5.220;2023-02-18T04:45:53;16.00;;;14.60;;
48873;SDS011;66155;46.204;5.220;2023-02-18T04:50:54;15.53;;;14.10;;
48873;SDS011;66155;46.204;5.220;2023-02-18T04:55:55;14.57;;;13.27;;
48873;SDS011;66155;46.204;5.220;2023-02-18T05:01:02;14.60;;;13.30;;
48873;SDS011;66155;46.204;5.220;2023-02-18T05:06:03;12.23;;;11.13;;
48873;SDS011;66155;46.204;5.220;2023-02-18T05:11:04;12.77;;;11.68;;
48873;SDS011;66155;46.204;5.220;2023-02-18T05:16:06;12.20;;;11.13;;
48873;SDS011;66155;46.204;5.220;2023-02-18T05:21:06;12.25;;;11.15;;
48873;SDS011;66155;46.204;5.220;2023-02-18T05:26:07;12.10;;;11.00;;
48873;SDS011;66155;46.204;5.220;2023-02-18T05:31:07;12.43;;;11.18;;
48873;SDS011;66155;46.204;5.220;2023-02-18T05:36:08;12.60;;;11.57;;
48873;SDS011;66155;46.204;5.220;2023-02-18T05:41:08;11.85;;;10.85;;
48873;SDS011;66155;46.204;5.220;2023-02-18T05:46:08;12.20;;;11.20;;
48873;SDS011;66155;46.204;5.220;2023-02-18T05:51:09;11.73;;;10.73;;
48873;SDS011;66155;46.204;5.220;2023-02-18T05:56:09;12.45;;;11.35;;
48873;SDS011;66155;46.204;5.220;2023-02-18T06:01:09;13.75;;;12.55;;
48873;SDS011;66155;46.204;5.220;2023-02-18T06:06:10;11.97;;;10.77;;
48873;SDS011;66155;46.204;5.220;2023-02-18T06:11:10;13.70;;;12.30;;
48873;SDS011;66155;46.204;5.220;2023-02-18T06:16:11;14.30;;;12.80;;
48873;SDS011;66155;46.204;5.220;2023-02-18T06:21:11;15.40;;;13.90;;
48873;SDS011;66155;46.204;5.220;2023-02-18T06:26:12;16.73;;;14.80;;
48873;SDS011;66155;46.204;5.220;2023-02-18T06:31:12;16.40;;;14.90;;
48873;SDS011;66155;46.204;5.220;2023-02-18T06:36:12;15.07;;;13.63;;
48873;SDS011;66155;46.204;5.220;2023-02-18T06:41:13;15.18;;;13.77;;
48873;SDS011;66155;46.204;5.220;2023-02-18T06:46:14;14.27;;;12.98;;
48873;SDS011;66155;46.204;5.220;2023-02-18T06:51:14;13.17;;;11.97;;
48873;SDS011;66155;46.204;5.220;2023-02-18T06:56:15;14.18;;;12.88;;
48873;SDS011;66155;46.204;5.220;2023-02-18T07:01:16;12.88;;;11.70;;
48873;SDS011;66155;46.204;5.220;2023-02-18T07:06:16;13.50;;;12.30;;
48873;SDS011;66155;46.204;5.220;2023-02-18T07:11:17;14.32;;;13.13;;
48873;SDS011;66155;46.204;5.220;2023-02-18T07:16:17;11.93;;;10.93;;
48873;SDS011;66155;46.204;5.220;2023-02-18T07:21:17;12.10;;;11.02;;
48873;SDS011;66155;46.204;5.220;2023-02-18T07:26:18;12.05;;;10.98;;
48873;SDS011;66155;46.204;5.220;2023-02-18T07:31:18;13.82;;;12.55;;
48873;SDS011;66155;46.204;5.220;2023-02-18T07:36:19;12.82;;;11.73;;
48873;SDS011;66155;46.204;5.220;2023-02-18T07:41:20;13.40;;;12.20;;
48873;SDS011;66155;46.204;5.220;2023-02-18T07:46:21;12.60;;;11.40;;
48873;SDS011;66155;46.204;5.220;2023-02-18T07:51:22;12.40;;;11.30;;
48873;SDS011;66155;46.204;5.220;2023-02-18T07:56:22;10.50;;;9.60;;
48873;SDS011;66155;46.204;5.220;2023-02-18T08:01:23;15.70;;;14.68;;
48873;SDS011;66155;46.204;5.220;2023-02-18T08:06:24;9.80;;;8.90;;
48873;SDS011;66155;46.204;5.220;2023-02-18T08:11:27;9.77;;;8.95;;
48873;SDS011;66155;46.204;5.220;2023-02-18T08:16:27;12.00;;;11.10;;
48873;SDS011;66155;46.204;5.220;2023-02-18T08:21:28;10.18;;;9.27;;
48873;SDS011;66155;46.204;5.220;2023-02-18T08:26:28;9.45;;;8.55;;
48873;SDS011;66155;46.204;5.220;2023-02-18T08:31:30;8.88;;;8.07;;
48873;SDS011;66155;46.204;5.220;2023-02-18T08:36:31;12.77;;;11.77;;
48873;SDS011;66155;46.204;5.220;2023-02-18T08:41:31;8.50;;;7.78;;
48873;SDS011;66155;46.204;5.220;2023-02-18T08:46:31;10.00;;;9.10;;
48873;SDS011;66155;46.204;5.220;2023-02-18T08:51:32;10.27;;;9.27;;
48873;SDS011;66155;46.204;5.220;2023-02-18T08:56:33;9.75;;;8.95;;
48873;SDS011;66155;46.204;5.220;2023-02-18T09:01:33;8.53;;;7.83;;
48873;SDS011;66155;46.204;5.220;2023-02-18T09:06:35;9.20;;;8.50;;
48873;SDS011;66155;46.204;5.220;2023-02-18T09:11:37;8.85;;;8.05;;
48873;SDS011;66155;46.204;5.220;2023-02-18T09:16:37;8.82;;;8.13;;
48873;SDS011;66155;46.204;5.220;2023-02-18T09:21:40;8.60;;;7.90;;
48873;SDS011;66155;46.204;5.220;2023-02-18T09:26:40;9.07;;;8.27;;
48873;SDS011;66155;46.204;5.220;2023-02-18T09:31:40;9.10;;;8.32;;
48873;SDS011;66155;46.204;5.220;2023-02-18T09:36:41;14.68;;;13.77;;
48873;SDS011;66155;46.204;5.220;2023-02-18T09:41:43;8.53;;;7.93;;
48873;SDS011;66155;46.204;5.220;2023-02-18T09:46:59;9.13;;;8.52;;
48873;SDS011;66155;46.204;5.220;2023-02-18T09:57:21;9.25;;;8.65;;
48873;SDS011;66155;46.204;5.220;2023-02-18T10:02:26;8.02;;;7.45;;
48873;SDS011;66155;46.204;5.220;2023-02-18T10:07:29;7.32;;;6.82;;
48873;SDS011;66155;46.204;5.220;2023-02-18T10:12:31;6.78;;;6.38;;
48873;SDS011;66155;46.204;5.220;2023-02-18T10:17:32;7.60;;;7.13;;
48873;SDS011;66155;46.204;5.220;2023-02-18T10:22:32;8.40;;;7.93;;
48873;SDS011;66155;46.204;5.220;2023-02-18T10:27:34;9.90;;;9.30;;
48873;SDS011;66155;46.204;5.220;2023-02-18T10:32:38;10.30;;;9.70;;
48873;SDS011;66155;46.204;5.220;2023-02-18T10:43:01;6.20;;;5.80;;
48873;SDS011;66155;46.204;5.220;2023-02-18T10:53:32;9.70;;;9.20;;
48873;SDS011;66155;46.204;5.220;2023-02-18T10:58:36;8.57;;;8.00;;
48873;SDS011;66155;46.204;5.220;2023-02-18T11:08:49;7.45;;;6.95;;
48873;SDS011;66155;46.204;5.220;2023-02-18T11:13:54;6.65;;;6.22;;
48873;SDS011;66155;46.204;5.220;2023-02-18T11:18:55;6.10;;;5.72;;
48873;SDS011;66155;46.204;5.220;2023-02-18T11:23:57;7.00;;;6.50;;
48873;SDS011;66155;46.204;5.220;2023-02-18T11:34:22;7.30;;;6.82;;
48873;SDS011;66155;46.204;5.220;2023-02-18T11:39:26;6.75;;;6.25;;
48873;SDS011;66155;46.204;5.220;2023-02-18T11:44:37;8.25;;;7.75;;
48873;SDS011;66155;46.204;5.220;2023-02-18T11:49:42;10.60;;;9.80;;
48873;SDS011;66155;46.204;5.220;2023-02-18T11:55:27;7.78;;;7.28;;
48873;SDS011;66155;46.204;5.220;2023-02-18T12:00:16;7.75;;;7.25;;
48873;SDS011;66155;46.204;5.220;2023-02-18T12:05:23;7.30;;;6.90;;
48873;SDS011;66155;46.204;5.220;2023-02-18T12:10:26;8.52;;;8.02;;
48873;SDS011;66155;46.204;5.220;2023-02-18T12:15:33;6.53;;;6.13;;
48873;SDS011;66155;46.204;5.220;2023-02-18T12:54:14;7.90;;;7.50;;
48873;SDS011;66155;46.204;5.220;2023-02-18T12:59:43;8.20;;;7.80;;
48873;SDS011;66155;46.204;5.220;2023-02-18T13:10:18;7.85;;;7.45;;
48873;SDS011;66155;46.204;5.220;2023-02-18T13:15:43;7.68;;;7.28;;
48873;SDS011;66155;46.204;5.220;2023-02-18T13:20:51;7.68;;;7.28;;
48873;SDS011;66155;46.204;5.220;2023-02-18T13:25:56;6.07;;;5.77;;
48873;SDS011;66155;46.204;5.220;2023-02-18T13:41:39;6.93;;;6.53;;
48873;SDS011;66155;46.204;5.220;2023-02-18T13:46:51;9.00;;;8.50;;
48873;SDS011;66155;46.204;5.220;2023-02-18T13:51:53;9.95;;;9.45;;
48873;SDS011;66155;46.204;5.220;2023-02-18T13:57:03;9.20;;;8.70;;
48873;SDS011;66155;46.204;5.220;2023-02-18T14:02:54;10.85;;;10.27;;
48873;SDS011;66155;46.204;5.220;2023-02-18T14:12:39;10.98;;;10.38;;
48873;SDS011;66155;46.204;5.220;2023-02-18T14:22:58;8.60;;;8.15;;
48873;SDS011;66155;46.204;5.220;2023-02-18T14:28:00;11.15;;;10.60;;
48873;SDS011;66155;46.204;5.220;2023-02-18T14:33:21;10.40;;;9.80;;
48873;SDS011;66155;46.204;5.220;2023-02-18T14:43:38;10.70;;;10.20;;
48873;SDS011;66155;46.204;5.220;2023-02-18T14:54:22;9.35;;;8.85;;
48873;SDS011;66155;46.204;5.220;2023-02-18T14:59:26;10.27;;;9.77;;
48873;SDS011;66155;46.204;5.220;2023-02-18T15:04:28;10.50;;;9.90;;
48873;SDS011;66155;46.204;5.220;2023-02-18T15:09:29;9.40;;;8.90;;
48873;SDS011;66155;46.204;5.220;2023-02-18T15:14:30;10.90;;;10.40;;
48873;SDS011;66155;46.204;5.220;2023-02-18T15:19:38;8.00;;;7.60;;
48873;SDS011;66155;46.204;5.220;2023-02-18T15:24:40;11.10;;;10.50;;
48873;SDS011;66155;46.204;5.220;2023-02-18T15:29:42;8.13;;;7.72;;
48873;SDS011;66155;46.204;5.220;2023-02-18T15:34:42;9.48;;;8.98;;
48873;SDS011;66155;46.204;5.220;2023-02-18T15:39:44;9.93;;;9.43;;
48873;SDS011;66155;46.204;5.220;2023-02-18T15:44:46;10.93;;;10.43;;
48873;SDS011;66155;46.204;5.220;2023-02-18T15:49:52;8.38;;;7.78;;
48873;SDS011;66155;46.204;5.220;2023-02-18T15:54:59;9.10;;;8.60;;
48873;SDS011;66155;46.204;5.220;2023-02-18T16:00:05;13.30;;;12.68;;
48873;SDS011;66155;46.204;5.220;2023-02-18T16:05:13;8.23;;;7.72;;
48873;SDS011;66155;46.204;5.220;2023-02-18T16:15:25;8.65;;;8.13;;
48873;SDS011;66155;46.204;5.220;2023-02-18T16:20:32;7.10;;;6.70;;
48873;SDS011;66155;46.204;5.220;2023-02-18T16:25:39;7.30;;;6.90;;
48873;SDS011;66155;46.204;5.220;2023-02-18T16:30:45;7.10;;;6.70;;
48873;SDS011;66155;46.204;5.220;2023-02-18T16:35:45;6.90;;;6.50;;
48873;SDS011;66155;46.204;5.220;2023-02-18T16:40:46;7.90;;;7.50;;
48873;SDS011;66155;46.204;5.220;2023-02-18T16:45:48;7.40;;;6.90;;
48873;SDS011;66155;46.204;5.220;2023-02-18T16:50:50;6.78;;;6.38;;
48873;SDS011;66155;46.204;5.220;2023-02-18T16:55:51;6.95;;;6.47;;
48873;SDS011;66155;46.204;5.220;2023-02-18T17:00:52;6.32;;;5.93;;
48873;SDS011;66155;46.204;5.220;2023-02-18T17:05:52;7.45;;;7.05;;
48873;SDS011;66155;46.204;5.220;2023-02-18T17:10:53;7.73;;;7.23;;
48873;SDS011;66155;46.204;5.220;2023-02-18T17:15:56;9.32;;;8.80;;
48873;SDS011;66155;46.204;5.220;2023-02-18T17:20:57;7.00;;;6.50;;
48873;SDS011;66155;46.204;5.220;2023-02-18T17:25:58;6.28;;;5.88;;
48873;SDS011;66155;46.204;5.220;2023-02-18T17:30:58;7.30;;;6.80;;
48873;SDS011;66155;46.204;5.220;2023-02-18T17:35:59;7.13;;;6.57;;
48873;SDS011;66155;46.204;5.220;2023-02-18T17:40:59;7.73;;;7.03;;
48873;SDS011;66155;46.204;5.220;2023-02-18T17:45:59;6.82;;;6.25;;
48873;SDS011;66155;46.204;5.220;2023-02-18T17:51:00;8.10;;;7.53;;
48873;SDS011;66155;46.204;5.220;2023-02-18T17:56:00;9.05;;;8.25;;
48873;SDS011;66155;46.204;5.220;2023-02-18T18:01:01;10.00;;;9.30;;
48873;SDS011;66155;46.204;5.220;2023-02-18T18:06:01;7.50;;;7.00;;
48873;SDS011;66155;46.204;5.220;2023-02-18T18:11:03;10.13;;;9.23;;
48873;SDS011;66155;46.204;5.220;2023-02-18T18:16:04;9.80;;;8.93;;
48873;SDS011;66155;46.204;5.220;2023-02-18T18:21:05;8.77;;;8.18;;
48873;SDS011;66155;46.204;5.220;2023-02-18T18:26:13;9.90;;;8.93;;
48873;SDS011;66155;46.204;5.220;2023-02-18T18:31:15;8.95;;;8.15;;
48873;SDS011;66155;46.204;5.220;2023-02-18T18:36:17;8.55;;;7.95;;
48873;SDS011;66155;46.204;5.220;2023-02-18T18:41:20;9.20;;;8.50;;
48873;SDS011;66155;46.204;5.220;2023-02-18T18:46:21;11.27;;;10.38;;
48873;SDS011;66155;46.204;5.220;2023-02-18T18:51:24;9.07;;;8.27;;
48873;SDS011;66155;46.204;5.220;2023-02-18T19:01:28;9.10;;;8.40;;
48873;SDS011;66155;46.204;5.220;2023-02-18T19:06:28;8.80;;;8.05;;
48873;SDS011;66155;46.204;5.220;2023-02-18T19:11:29;8.53;;;7.83;;
48873;SDS011;66155;46.204;5.220;2023-02-18T19:16:38;10.20;;;9.30;;
48873;SDS011;66155;46.204;5.220;2023-02-18T19:21:41;11.38;;;10.38;;
48873;SDS011;66155;46.204;5.220;2023-02-18T19:26:42;12.02;;;11.13;;
48873;SDS011;66155;46.204;5.220;2023-02-18T19:31:43;10.35;;;9.45;;
48873;SDS011;66155;46.204;5.220;2023-02-18T19:36:43;10.52;;;9.57;;
48873;SDS011;66155;46.204;5.220;2023-02-18T19:41:45;8.90;;;8.13;;
48873;SDS011;66155;46.204;5.220;2023-02-18T19:46:46;11.00;;;10.10;;
48873;SDS011;66155;46.204;5.220;2023-02-18T19:51:46;9.73;;;8.93;;
48873;SDS011;66155;46.204;5.220;2023-02-18T19:56:47;10.00;;;9.20;;
48873;SDS011;66155;46.204;5.220;2023-02-18T20:01:47;9.25;;;8.45;;
48873;SDS011;66155;46.204;5.220;2023-02-18T20:06:48;9.88;;;9.07;;
48873;SDS011;66155;46.204;5.220;2023-02-18T20:11:48;12.73;;;11.63;;
48873;SDS011;66155;46.204;5.220;2023-02-18T20:16:49;13.43;;;12.18;;
48873;SDS011;66155;46.204;5.220;2023-02-18T20:21:49;12.00;;;10.90;;
48873;SDS011;66155;46.204;5.220;2023-02-18T20:26:50;13.63;;;12.43;;
48873;SDS011;66155;46.204;5.220;2023-02-18T20:31:51;14.73;;;13.25;;
48873;SDS011;66155;46.204;5.220;2023-02-18T20:36:52;15.80;;;14.45;;
48873;SDS011;66155;46.204;5.220;2023-02-18T20:41:53;12.82;;;11.63;;
48873;SDS011;66155;46.204;5.220;2023-02-18T20:46:54;11.57;;;10.48;;
48873;SDS011;66155;46.204;5.220;2023-02-18T20:51:54;11.95;;;10.75;;
48873;SDS011;66155;46.204;5.220;2023-02-18T20:56:55;16.05;;;13.25;;
48873;SDS011;66155;46.204;5.220;2023-02-18T21:01:55;12.60;;;11.30;;
48873;SDS011;66155;46.204;5.220;2023-02-18T21:06:56;12.15;;;10.95;;
48873;SDS011;66155;46.204;5.220;2023-02-18T21:11:56;12.23;;;11.05;;
48873;SDS011;66155;46.204;5.220;2023-02-18T21:16:57;10.50;;;9.50;;
48873;SDS011;66155;46.204;5.220;2023-02-18T21:21:57;13.32;;;11.93;;
48873;SDS011;66155;46.204;5.220;2023-02-18T21:26:59;14.43;;;13.02;;
48873;SDS011;66155;46.204;5.220;2023-02-18T21:32:00;13.30;;;12.00;;
48873;SDS011;66155;46.204;5.220;2023-02-18T21:37:00;11.48;;;10.27;;
48873;SDS011;66155;46.204;5.220;2023-02-18T21:42:00;9.80;;;8.90;;
48873;SDS011;66155;46.204;5.220;2023-02-18T21:47:03;12.13;;;11.05;;
48873;SDS011;66155;46.204;5.220;2023-02-18T21:52:03;10.00;;;9.15;;
48873;SDS011;66155;46.204;5.220;2023-02-18T21:57:11;11.55;;;10.50;;
48873;SDS011;66155;46.204;5.220;2023-02-18T22:07:19;11.07;;;10.10;;
48873;SDS011;66155;46.204;5.220;2023-02-18T22:12:22;9.40;;;8.50;;
48873;SDS011;66155;46.204;5.220;2023-02-18T22:17:23;11.00;;;10.10;;
48873;SDS011;66155;46.204;5.220;2023-02-18T22:22:24;10.70;;;9.80;;
48873;SDS011;66155;46.204;5.220;2023-02-18T22:27:24;10.32;;;9.52;;
48873;SDS011;66155;46.204;5.220;2023-02-18T22:32:26;11.45;;;10.55;;
48873;SDS011;66155;46.204;5.220;2023-02-18T22:37:26;13.18;;;11.98;;
48873;SDS011;66155;46.204;5.220;2023-02-18T22:42:27;11.55;;;10.50;;
48873;SDS011;66155;46.204;5.220;2023-02-18T22:47:27;11.98;;;10.88;;
48873;SDS011;66155;46.204;5.220;2023-02-18T22:52:28;11.77;;;10.57;;
48873;SDS011;66155;46.204;5.220;2023-02-18T22:57:28;10.68;;;9.68;;
48873;SDS011;66155;46.204;5.220;2023-02-18T23:02:29;14.98;;;12.88;;
48873;SDS011;66155;46.204;5.220;2023-02-18T23:07:29;13.77;;;12.32;;
48873;SDS011;66155;46.204;5.220;2023-02-18T23:12:29;15.48;;;13.82;;
48873;SDS011;66155;46.204;5.220;2023-02-18T23:17:30;14.98;;;13.48;;
48873;SDS011;66155;46.204;5.220;2023-02-18T23:22:31;14.13;;;12.82;;
48873;SDS011;66155;46.204;5.220;2023-02-18T23:27:34;13.15;;;11.77;;
48873;SDS011;66155;46.204;5.220;2023-02-18T23:32:35;12.85;;;11.32;;
48873;SDS011;66155;46.204;5.220;2023-02-18T23:37:36;12.13;;;10.98;;
48873;SDS011;66155;46.204;5.220;2023-02-18T23:43:12;13.23;;;11.82;;
48873;SDS011;66155;46.204;5.220;2023-02-18T23:48:12;12.90;;;11.60;;
48873;SDS011;66155;46.204;5.220;2023-02-18T23:53:12;13.38;;;12.07;;
48873;SDS011;66155;46.204;5.220;2023-02-18T23:58:13;13.88;;;12.50;;
